sensor_id;sensor_type;location;lat;lon;timestamp;temperature;humidity
12720;DHT22;6424;48.520;11.228;2023-10-13T00:02:43;16.90;99.90
12720;DHT22;6424;48.520;11.228;2023-10-13T00:05:29;16.80;99.90
12720;DHT22;6424;48.520;11.228;2023-10-13T00:08:16;16.80;99.90
12720;DHT22;6424;48.520;11.228;2023-10-13T00:11:02;16.70;99.90
12720;DHT22;6424;48.520;11.228;2023-10-13T00:13:47;16.60;99.90
12720;DHT22;6424;48.520;11.228;2023-10-13T00:16:38;16.50;99.90
12720;DHT22;6424;48.520;11.228;2023-10-13T00:19:24;16.50;99.90
12720;DHT22;6424;48.520;11.228;2023-10-13T00:22:09;16.40;99.90
12720;DHT22;6424;48.520;11.228;2023-10-13T00:24:53;16.40;99.90
12720;DHT22;6424;48.520;11.228;2023-10-13T00:27:42;16.40;99.90
12720;DHT22;6424;48.520;11.228;2023-10-13T00:30:27;16.30;99.90
12720;DHT22;6424;48.520;11.228;2023-10-13T00:33:17;16.30;99.90
12720;DHT22;6424;48.520;11.228;2023-10-13T00:36:05;16.20;99.90
12720;DHT22;6424;48.520;11.228;2023-10-13T00:38:51;16.20;99.90
12720;DHT22;6424;48.520;11.228;2023-10-13T00:41:36;16.10;99.90
12720;DHT22;6424;48.520;11.228;2023-10-13T00:44:43;16.10;99.90
12720;DHT22;6424;48.520;11.228;2023-10-13T00:47:32;16.00;99.90
12720;DHT22;6424;48.520;11.228;2023-10-13T00:50:20;15.90;99.90
12720;DHT22;6424;48.520;11.228;2023-10-13T00:53:04;15.90;99.90
12720;DHT22;6424;48.520;11.228;2023-10-13T00:55:49;15.80;99.90
12720;DHT22;6424;48.520;11.228;2023-10-13T00:58:34;15.80;99.90
12720;DHT22;6424;48.520;11.228;2023-10-13T01:01:18;15.80;99.90
12720;DHT22;6424;48.520;11.228;2023-10-13T01:04:06;15.70;99.90
12720;DHT22;6424;48.520;11.228;2023-10-13T01:06:52;15.70;99.90
12720;DHT22;6424;48.520;11.228;2023-10-13T01:09:41;15.70;99.90
12720;DHT22;6424;48.520;11.228;2023-10-13T01:12:26;15.60;99.90
12720;DHT22;6424;48.520;11.228;2023-10-13T01:15:10;15.60;99.90
12720;DHT22;6424;48.520;11.228;2023-10-13T01:18:09;15.60;99.90
12720;DHT22;6424;48.520;11.228;2023-10-13T01:20:57;15.60;99.90
12720;DHT22;6424;48.520;11.228;2023-10-13T01:23:44;15.50;99.90
12720;DHT22;6424;48.520;11.228;2023-10-13T01:26:29;15.50;99.90
12720;DHT22;6424;48.520;11.228;2023-10-13T01:29:13;15.40;99.90
12720;DHT22;6424;48.520;11.228;2023-10-13T01:31:58;15.40;99.90
12720;DHT22;6424;48.520;11.228;2023-10-13T01:34:42;15.30;99.90
12720;DHT22;6424;48.520;11.228;2023-10-13T01:37:30;15.40;99.90
12720;DHT22;6424;48.520;11.228;2023-10-13T01:40:14;15.30;99.90
12720;DHT22;6424;48.520;11.228;2023-10-13T01:43:03;15.30;99.90
12720;DHT22;6424;48.520;11.228;2023-10-13T01:45:49;15.20;99.90
12720;DHT22;6424;48.520;11.228;2023-10-13T01:48:33;15.20;99.90
12720;DHT22;6424;48.520;11.228;2023-10-13T01:51:23;15.30;99.90
12720;DHT22;6424;48.520;11.228;2023-10-13T01:54:12;15.20;99.90
12720;DHT22;6424;48.520;11.228;2023-10-13T01:56:57;15.20;99.90
12720;DHT22;6424;48.520;11.228;2023-10-13T01:59:44;15.20;99.90
12720;DHT22;6424;48.520;11.228;2023-10-13T02:02:29;15.10;99.90
12720;DHT22;6424;48.520;11.228;2023-10-13T02:05:13;15.10;99.90
12720;DHT22;6424;48.520;11.228;2023-10-13T02:08:00;15.00;99.90
12720;DHT22;6424;48.520;11.228;2023-10-13T02:10:45;15.00;99.90
12720;DHT22;6424;48.520;11.228;2023-10-13T02:13:29;15.00;99.90
12720;DHT22;6424;48.520;11.228;2023-10-13T02:16:14;15.00;99.90
12720;DHT22;6424;48.520;11.228;2023-10-13T02:19:02;14.90;99.90
12720;DHT22;6424;48.520;11.228;2023-10-13T02:21:50;14.90;99.90
12720;DHT22;6424;48.520;11.228;2023-10-13T02:24:42;14.90;99.90
12720;DHT22;6424;48.520;11.228;2023-10-13T02:27:28;14.80;99.90
12720;DHT22;6424;48.520;11.228;2023-10-13T02:30:13;14.80;99.90
12720;DHT22;6424;48.520;11.228;2023-10-13T02:32:58;14.80;99.90
12720;DHT22;6424;48.520;11.228;2023-10-13T02:35:49;14.80;99.90
12720;DHT22;6424;48.520;11.228;2023-10-13T02:38:40;14.80;99.90
12720;DHT22;6424;48.520;11.228;2023-10-13T02:41:24;14.80;99.90
12720;DHT22;6424;48.520;11.228;2023-10-13T02:44:13;14.70;99.90
12720;DHT22;6424;48.520;11.228;2023-10-13T02:47:04;14.70;99.90
12720;DHT22;6424;48.520;11.228;2023-10-13T02:49:57;14.70;99.90
12720;DHT22;6424;48.520;11.228;2023-10-13T02:52:55;14.70;99.90
12720;DHT22;6424;48.520;11.228;2023-10-13T02:55:53;14.60;99.90
12720;DHT22;6424;48.520;11.228;2023-10-13T02:58:37;14.60;99.90
12720;DHT22;6424;48.520;11.228;2023-10-13T03:01:28;14.70;99.90
12720;DHT22;6424;48.520;11.228;2023-10-13T03:04:13;14.60;99.90
12720;DHT22;6424;48.520;11.228;2023-10-13T03:06:57;14.60;99.90
12720;DHT22;6424;48.520;11.228;2023-10-13T03:09:43;14.60;99.90
12720;DHT22;6424;48.520;11.228;2023-10-13T03:12:35;14.70;99.90
12720;DHT22;6424;48.520;11.228;2023-10-13T03:15:20;14.70;99.90
12720;DHT22;6424;48.520;11.228;2023-10-13T03:18:14;14.70;99.90
12720;DHT22;6424;48.520;11.228;2023-10-13T03:21:02;14.70;99.90
12720;DHT22;6424;48.520;11.228;2023-10-13T03:23:46;14.70;99.90
12720;DHT22;6424;48.520;11.228;2023-10-13T03:26:32;14.80;99.90
12720;DHT22;6424;48.520;11.228;2023-10-13T03:29:20;14.80;99.90
12720;DHT22;6424;48.520;11.228;2023-10-13T03:32:11;14.90;99.90
12720;DHT22;6424;48.520;11.228;2023-10-13T03:34:56;14.90;99.90
12720;DHT22;6424;48.520;11.228;2023-10-13T03:37:46;15.00;99.90
12720;DHT22;6424;48.520;11.228;2023-10-13T03:40:30;15.00;99.90
12720;DHT22;6424;48.520;11.228;2023-10-13T03:43:15;15.10;99.90
12720;DHT22;6424;48.520;11.228;2023-10-13T03:46:05;15.10;99.90
12720;DHT22;6424;48.520;11.228;2023-10-13T03:48:53;15.00;99.90
12720;DHT22;6424;48.520;11.228;2023-10-13T03:51:45;15.00;99.90
12720;DHT22;6424;48.520;11.228;2023-10-13T03:54:29;15.00;99.90
12720;DHT22;6424;48.520;11.228;2023-10-13T03:57:15;15.00;99.90
12720;DHT22;6424;48.520;11.228;2023-10-13T04:00:00;15.00;99.90
12720;DHT22;6424;48.520;11.228;2023-10-13T04:02:53;14.90;99.90
12720;DHT22;6424;48.520;11.228;2023-10-13T04:05:46;14.90;99.90
12720;DHT22;6424;48.520;11.228;2023-10-13T04:08:44;15.00;99.90
12720;DHT22;6424;48.520;11.228;2023-10-13T04:11:32;14.90;99.90
12720;DHT22;6424;48.520;11.228;2023-10-13T04:14:45;15.00;99.90
12720;DHT22;6424;48.520;11.228;2023-10-13T04:17:42;14.90;99.90
12720;DHT22;6424;48.520;11.228;2023-10-13T04:20:29;15.00;99.90
12720;DHT22;6424;48.520;11.228;2023-10-13T04:23:22;14.90;99.90
12720;DHT22;6424;48.520;11.228;2023-10-13T04:26:15;14.90;99.90
12720;DHT22;6424;48.520;11.228;2023-10-13T04:29:07;15.00;99.90
12720;DHT22;6424;48.520;11.228;2023-10-13T04:32:12;15.00;99.90
12720;DHT22;6424;48.520;11.228;2023-10-13T04:35:00;14.90;99.90
12720;DHT22;6424;48.520;11.228;2023-10-13T04:37:57;14.90;99.90
12720;DHT22;6424;48.520;11.228;2023-10-13T04:40:45;14.90;99.90
12720;DHT22;6424;48.520;11.228;2023-10-13T04:43:42;14.80;99.90
12720;DHT22;6424;48.520;11.228;2023-10-13T04:46:48;14.70;99.90
12720;DHT22;6424;48.520;11.228;2023-10-13T04:49:38;14.70;99.90
12720;DHT22;6424;48.520;11.228;2023-10-13T04:52:23;14.70;99.90
12720;DHT22;6424;48.520;11.228;2023-10-13T04:55:35;14.60;99.90
12720;DHT22;6424;48.520;11.228;2023-10-13T04:58:19;14.60;99.90
12720;DHT22;6424;48.520;11.228;2023-10-13T05:01:18;14.60;99.90
12720;DHT22;6424;48.520;11.228;2023-10-13T05:04:08;14.50;99.90
12720;DHT22;6424;48.520;11.228;2023-10-13T05:06:59;14.50;99.90
12720;DHT22;6424;48.520;11.228;2023-10-13T05:10:09;14.50;99.90
12720;DHT22;6424;48.520;11.228;2023-10-13T05:13:12;14.50;99.90
12720;DHT22;6424;48.520;11.228;2023-10-13T05:16:15;14.50;99.90
12720;DHT22;6424;48.520;11.228;2023-10-13T05:19:29;14.50;99.90
12720;DHT22;6424;48.520;11.228;2023-10-13T05:22:32;14.50;99.90
12720;DHT22;6424;48.520;11.228;2023-10-13T05:25:37;14.40;99.90
12720;DHT22;6424;48.520;11.228;2023-10-13T05:28:40;14.40;99.90
12720;DHT22;6424;48.520;11.228;2023-10-13T05:31:43;14.40;99.90
12720;DHT22;6424;48.520;11.228;2023-10-13T05:34:46;14.30;99.90
12720;DHT22;6424;48.520;11.228;2023-10-13T05:37:49;14.20;99.90
12720;DHT22;6424;48.520;11.228;2023-10-13T05:41:00;14.20;99.90
12720;DHT22;6424;48.520;11.228;2023-10-13T05:44:03;14.20;99.90
12720;DHT22;6424;48.520;11.228;2023-10-13T05:47:06;14.10;99.90
12720;DHT22;6424;48.520;11.228;2023-10-13T05:50:26;14.10;99.90
12720;DHT22;6424;48.520;11.228;2023-10-13T05:53:10;14.10;99.90
12720;DHT22;6424;48.520;11.228;2023-10-13T05:56:00;14.10;99.90
12720;DHT22;6424;48.520;11.228;2023-10-13T05:59:03;14.10;99.90
12720;DHT22;6424;48.520;11.228;2023-10-13T06:02:06;14.10;99.90
12720;DHT22;6424;48.520;11.228;2023-10-13T06:05:13;14.10;99.90
12720;DHT22;6424;48.520;11.228;2023-10-13T06:08:16;14.10;99.90
12720;DHT22;6424;48.520;11.228;2023-10-13T06:11:19;14.20;99.90
12720;DHT22;6424;48.520;11.228;2023-10-13T06:14:22;14.20;99.90
12720;DHT22;6424;48.520;11.228;2023-10-13T06:17:25;14.30;99.90
12720;DHT22;6424;48.520;11.228;2023-10-13T06:20:28;14.30;99.90
12720;DHT22;6424;48.520;11.228;2023-10-13T06:23:31;14.40;99.90
12720;DHT22;6424;48.520;11.228;2023-10-13T06:26:47;14.50;99.90
12720;DHT22;6424;48.520;11.228;2023-10-13T06:29:50;14.60;99.90
12720;DHT22;6424;48.520;11.228;2023-10-13T06:32:37;14.70;99.90
12720;DHT22;6424;48.520;11.228;2023-10-13T06:35:23;14.80;99.90
12720;DHT22;6424;48.520;11.228;2023-10-13T06:38:08;14.90;99.90
12720;DHT22;6424;48.520;11.228;2023-10-13T06:41:07;15.00;99.90
12720;DHT22;6424;48.520;11.228;2023-10-13T06:43:52;15.10;99.90
12720;DHT22;6424;48.520;11.228;2023-10-13T06:46:43;15.40;99.90
12720;DHT22;6424;48.520;11.228;2023-10-13T06:49:28;15.90;99.90
12720;DHT22;6424;48.520;11.228;2023-10-13T06:52:13;16.40;99.90
12720;DHT22;6424;48.520;11.228;2023-10-13T06:54:58;16.80;99.90
12720;DHT22;6424;48.520;11.228;2023-10-13T06:57:47;17.20;99.90
12720;DHT22;6424;48.520;11.228;2023-10-13T07:00:33;17.50;99.90
12720;DHT22;6424;48.520;11.228;2023-10-13T07:03:25;17.80;99.90
12720;DHT22;6424;48.520;11.228;2023-10-13T07:06:09;18.00;99.90
12720;DHT22;6424;48.520;11.228;2023-10-13T07:09:02;18.20;99.90
12720;DHT22;6424;48.520;11.228;2023-10-13T07:11:48;18.30;99.90
12720;DHT22;6424;48.520;11.228;2023-10-13T07:14:37;18.30;99.90
12720;DHT22;6424;48.520;11.228;2023-10-13T07:17:21;18.30;99.90
12720;DHT22;6424;48.520;11.228;2023-10-13T07:20:09;18.30;99.90
12720;DHT22;6424;48.520;11.228;2023-10-13T07:23:00;18.30;99.90
12720;DHT22;6424;48.520;11.228;2023-10-13T07:25:55;18.50;99.90
12720;DHT22;6424;48.520;11.228;2023-10-13T07:28:42;18.70;99.90
12720;DHT22;6424;48.520;11.228;2023-10-13T07:31:29;18.90;99.90
12720;DHT22;6424;48.520;11.228;2023-10-13T07:34:13;19.10;99.90
12720;DHT22;6424;48.520;11.228;2023-10-13T07:37:08;19.30;99.90
12720;DHT22;6424;48.520;11.228;2023-10-13T07:40:00;19.50;99.90
12720;DHT22;6424;48.520;11.228;2023-10-13T07:42:45;19.70;99.90
12720;DHT22;6424;48.520;11.228;2023-10-13T07:45:30;19.80;99.20
12720;DHT22;6424;48.520;11.228;2023-10-13T07:48:20;20.00;98.60
12720;DHT22;6424;48.520;11.228;2023-10-13T07:51:07;20.00;97.00
12720;DHT22;6424;48.520;11.228;2023-10-13T07:54:00;20.10;96.20
12720;DHT22;6424;48.520;11.228;2023-10-13T07:56:51;20.10;96.30
12720;DHT22;6424;48.520;11.228;2023-10-13T07:59:35;20.20;95.50
12720;DHT22;6424;48.520;11.228;2023-10-13T08:02:21;20.30;95.80
12720;DHT22;6424;48.520;11.228;2023-10-13T08:05:24;20.40;94.50
12720;DHT22;6424;48.520;11.228;2023-10-13T08:11:01;20.60;93.50
12720;DHT22;6424;48.520;11.228;2023-10-13T08:13:57;20.60;92.30
12720;DHT22;6424;48.520;11.228;2023-10-13T08:16:44;20.70;93.40
12720;DHT22;6424;48.520;11.228;2023-10-13T08:19:37;20.80;92.90
12720;DHT22;6424;48.520;11.228;2023-10-13T08:22:28;20.90;92.00
12720;DHT22;6424;48.520;11.228;2023-10-13T08:25:21;21.10;92.90
12720;DHT22;6424;48.520;11.228;2023-10-13T08:28:08;21.20;91.20
12720;DHT22;6424;48.520;11.228;2023-10-13T08:31:12;21.30;91.80
12720;DHT22;6424;48.520;11.228;2023-10-13T08:34:14;21.40;90.80
12720;DHT22;6424;48.520;11.228;2023-10-13T08:37:07;21.60;91.50
12720;DHT22;6424;48.520;11.228;2023-10-13T08:43:27;21.90;88.00
12720;DHT22;6424;48.520;11.228;2023-10-13T08:46:24;22.00;86.90
12720;DHT22;6424;48.520;11.228;2023-10-13T08:49:10;22.10;86.20
12720;DHT22;6424;48.520;11.228;2023-10-13T08:52:02;22.10;86.90
12720;DHT22;6424;48.520;11.228;2023-10-13T08:55:10;22.10;86.00
12720;DHT22;6424;48.520;11.228;2023-10-13T08:58:14;22.20;84.70
12720;DHT22;6424;48.520;11.228;2023-10-13T09:00:59;22.30;84.10
12720;DHT22;6424;48.520;11.228;2023-10-13T09:03:57;22.40;83.60
12720;DHT22;6424;48.520;11.228;2023-10-13T09:07:05;22.40;83.60
12720;DHT22;6424;48.520;11.228;2023-10-13T09:09:50;22.50;83.90
12720;DHT22;6424;48.520;11.228;2023-10-13T09:12:34;22.70;82.50
12720;DHT22;6424;48.520;11.228;2023-10-13T09:15:28;22.70;80.10
12720;DHT22;6424;48.520;11.228;2023-10-13T09:18:33;22.70;76.90
12720;DHT22;6424;48.520;11.228;2023-10-13T09:21:38;22.70;76.40
12720;DHT22;6424;48.520;11.228;2023-10-13T09:24:22;22.80;76.90
12720;DHT22;6424;48.520;11.228;2023-10-13T09:27:16;22.90;75.00
12720;DHT22;6424;48.520;11.228;2023-10-13T09:30:01;22.90;75.60
12720;DHT22;6424;48.520;11.228;2023-10-13T09:33:05;23.00;75.60
12720;DHT22;6424;48.520;11.228;2023-10-13T09:35:52;23.10;73.50
12720;DHT22;6424;48.520;11.228;2023-10-13T09:38:38;23.20;73.30
12720;DHT22;6424;48.520;11.228;2023-10-13T09:41:25;23.20;70.30
12720;DHT22;6424;48.520;11.228;2023-10-13T09:44:10;23.20;71.70
12720;DHT22;6424;48.520;11.228;2023-10-13T09:47:00;23.20;71.90
12720;DHT22;6424;48.520;11.228;2023-10-13T09:49:57;23.20;70.50
12720;DHT22;6424;48.520;11.228;2023-10-13T09:52:47;23.30;70.10
12720;DHT22;6424;48.520;11.228;2023-10-13T09:55:35;23.40;69.80
12720;DHT22;6424;48.520;11.228;2023-10-13T09:58:23;23.50;70.40
12720;DHT22;6424;48.520;11.228;2023-10-13T10:01:18;23.60;69.80
12720;DHT22;6424;48.520;11.228;2023-10-13T10:04:16;23.60;71.20
12720;DHT22;6424;48.520;11.228;2023-10-13T10:07:04;23.80;70.70
12720;DHT22;6424;48.520;11.228;2023-10-13T10:09:56;23.90;71.70
12720;DHT22;6424;48.520;11.228;2023-10-13T10:13:00;23.90;68.20
12720;DHT22;6424;48.520;11.228;2023-10-13T10:15:47;23.90;67.50
12720;DHT22;6424;48.520;11.228;2023-10-13T10:18:33;23.90;68.00
12720;DHT22;6424;48.520;11.228;2023-10-13T10:21:17;24.00;68.20
12720;DHT22;6424;48.520;11.228;2023-10-13T10:24:15;24.10;66.40
12720;DHT22;6424;48.520;11.228;2023-10-13T10:27:08;24.20;63.30
12720;DHT22;6424;48.520;11.228;2023-10-13T10:29:57;24.20;63.30
12720;DHT22;6424;48.520;11.228;2023-10-13T10:32:41;24.20;65.10
12720;DHT22;6424;48.520;11.228;2023-10-13T10:35:33;24.30;65.80
12720;DHT22;6424;48.520;11.228;2023-10-13T10:38:19;24.50;66.40
12720;DHT22;6424;48.520;11.228;2023-10-13T10:41:06;24.60;63.50
12720;DHT22;6424;48.520;11.228;2023-10-13T10:43:51;24.60;64.10
12720;DHT22;6424;48.520;11.228;2023-10-13T10:46:35;24.70;63.40
12720;DHT22;6424;48.520;11.228;2023-10-13T10:49:27;24.70;62.80
12720;DHT22;6424;48.520;11.228;2023-10-13T10:52:15;24.80;63.20
12720;DHT22;6424;48.520;11.228;2023-10-13T10:55:03;24.90;60.10
12720;DHT22;6424;48.520;11.228;2023-10-13T10:58:01;24.90;61.80
12720;DHT22;6424;48.520;11.228;2023-10-13T11:00:45;25.00;60.40
12720;DHT22;6424;48.520;11.228;2023-10-13T11:03:30;25.10;59.00
12720;DHT22;6424;48.520;11.228;2023-10-13T11:06:14;25.10;58.30
12720;DHT22;6424;48.520;11.228;2023-10-13T11:09:06;25.20;58.20
12720;DHT22;6424;48.520;11.228;2023-10-13T11:12:14;25.20;57.30
12720;DHT22;6424;48.520;11.228;2023-10-13T11:15:11;25.20;57.50
12720;DHT22;6424;48.520;11.228;2023-10-13T11:18:00;25.20;57.10
12720;DHT22;6424;48.520;11.228;2023-10-13T11:20:44;25.20;58.20
12720;DHT22;6424;48.520;11.228;2023-10-13T11:23:29;25.40;57.00
12720;DHT22;6424;48.520;11.228;2023-10-13T11:26:13;25.40;57.10
12720;DHT22;6424;48.520;11.228;2023-10-13T11:28:57;25.50;57.30
12720;DHT22;6424;48.520;11.228;2023-10-13T11:31:42;25.50;56.50
12720;DHT22;6424;48.520;11.228;2023-10-13T11:34:27;25.60;56.70
12720;DHT22;6424;48.520;11.228;2023-10-13T11:37:23;25.70;57.10
12720;DHT22;6424;48.520;11.228;2023-10-13T11:40:21;25.70;56.40
12720;DHT22;6424;48.520;11.228;2023-10-13T11:43:25;25.70;57.10
12720;DHT22;6424;48.520;11.228;2023-10-13T11:46:14;25.70;55.90
12720;DHT22;6424;48.520;11.228;2023-10-13T11:48:59;25.80;55.80
12720;DHT22;6424;48.520;11.228;2023-10-13T11:51:50;25.80;56.20
12720;DHT22;6424;48.520;11.228;2023-10-13T11:54:35;25.80;55.80
12720;DHT22;6424;48.520;11.228;2023-10-13T11:57:22;25.90;55.90
12720;DHT22;6424;48.520;11.228;2023-10-13T12:00:07;26.00;56.30
12720;DHT22;6424;48.520;11.228;2023-10-13T12:03:14;26.00;54.50
12720;DHT22;6424;48.520;11.228;2023-10-13T12:06:18;26.00;54.70
12720;DHT22;6424;48.520;11.228;2023-10-13T12:09:17;26.00;55.20
12720;DHT22;6424;48.520;11.228;2023-10-13T12:12:01;26.00;54.80
12720;DHT22;6424;48.520;11.228;2023-10-13T12:14:48;26.10;54.90
12720;DHT22;6424;48.520;11.228;2023-10-13T12:17:41;26.20;54.80
12720;DHT22;6424;48.520;11.228;2023-10-13T12:23:20;26.20;53.90
12720;DHT22;6424;48.520;11.228;2023-10-13T12:26:15;26.10;54.40
12720;DHT22;6424;48.520;11.228;2023-10-13T12:29:16;26.10;54.70
12720;DHT22;6424;48.520;11.228;2023-10-13T12:32:07;26.00;54.10
12720;DHT22;6424;48.520;11.228;2023-10-13T12:34:57;26.00;54.50
12720;DHT22;6424;48.520;11.228;2023-10-13T12:37:41;26.00;55.30
12720;DHT22;6424;48.520;11.228;2023-10-13T12:40:28;26.00;54.70
12720;DHT22;6424;48.520;11.228;2023-10-13T12:43:31;26.10;53.60
12720;DHT22;6424;48.520;11.228;2023-10-13T12:46:34;26.10;53.20
12720;DHT22;6424;48.520;11.228;2023-10-13T12:49:37;26.10;51.70
12720;DHT22;6424;48.520;11.228;2023-10-13T12:52:25;26.20;52.90
12720;DHT22;6424;48.520;11.228;2023-10-13T12:55:09;26.20;53.40
12720;DHT22;6424;48.520;11.228;2023-10-13T12:57:54;26.10;53.20
12720;DHT22;6424;48.520;11.228;2023-10-13T13:00:39;26.10;53.10
12720;DHT22;6424;48.520;11.228;2023-10-13T13:03:32;26.10;51.10
12720;DHT22;6424;48.520;11.228;2023-10-13T13:06:21;26.00;51.00
12720;DHT22;6424;48.520;11.228;2023-10-13T13:09:09;26.00;52.60
12720;DHT22;6424;48.520;11.228;2023-10-13T13:11:54;26.10;51.10
12720;DHT22;6424;48.520;11.228;2023-10-13T13:14:42;26.10;51.80
12720;DHT22;6424;48.520;11.228;2023-10-13T13:17:30;26.10;51.10
12720;DHT22;6424;48.520;11.228;2023-10-13T13:20:15;26.10;51.00
12720;DHT22;6424;48.520;11.228;2023-10-13T13:23:14;26.10;51.40
12720;DHT22;6424;48.520;11.228;2023-10-13T13:25:59;26.10;51.90
12720;DHT22;6424;48.520;11.228;2023-10-13T13:28:45;26.10;51.40
12720;DHT22;6424;48.520;11.228;2023-10-13T13:31:39;26.20;50.90
12720;DHT22;6424;48.520;11.228;2023-10-13T13:34:27;26.10;51.40
12720;DHT22;6424;48.520;11.228;2023-10-13T13:37:11;26.10;51.90
12720;DHT22;6424;48.520;11.228;2023-10-13T13:39:58;26.00;52.70
12720;DHT22;6424;48.520;11.228;2023-10-13T13:42:58;26.00;52.00
12720;DHT22;6424;48.520;11.228;2023-10-13T13:45:45;26.00;52.00
12720;DHT22;6424;48.520;11.228;2023-10-13T13:48:29;25.90;51.70
12720;DHT22;6424;48.520;11.228;2023-10-13T13:51:15;25.80;52.20
12720;DHT22;6424;48.520;11.228;2023-10-13T13:53:59;25.80;52.40
12720;DHT22;6424;48.520;11.228;2023-10-13T13:56:44;25.70;52.00
12720;DHT22;6424;48.520;11.228;2023-10-13T13:59:28;25.70;51.50
12720;DHT22;6424;48.520;11.228;2023-10-13T14:02:17;25.70;52.30
12720;DHT22;6424;48.520;11.228;2023-10-13T14:05:04;25.70;52.50
12720;DHT22;6424;48.520;11.228;2023-10-13T14:07:50;25.70;53.20
12720;DHT22;6424;48.520;11.228;2023-10-13T14:10:34;25.70;52.10
12720;DHT22;6424;48.520;11.228;2023-10-13T14:13:39;25.70;51.90
12720;DHT22;6424;48.520;11.228;2023-10-13T14:16:33;25.60;52.00
12720;DHT22;6424;48.520;11.228;2023-10-13T14:19:19;25.60;52.10
12720;DHT22;6424;48.520;11.228;2023-10-13T14:22:10;25.60;53.10
12720;DHT22;6424;48.520;11.228;2023-10-13T14:24:56;25.50;52.40
12720;DHT22;6424;48.520;11.228;2023-10-13T14:27:42;25.50;53.30
12720;DHT22;6424;48.520;11.228;2023-10-13T14:30:26;25.40;53.20
12720;DHT22;6424;48.520;11.228;2023-10-13T14:33:15;25.40;52.70
12720;DHT22;6424;48.520;11.228;2023-10-13T14:35:59;25.40;53.00
12720;DHT22;6424;48.520;11.228;2023-10-13T14:38:43;25.40;53.60
12720;DHT22;6424;48.520;11.228;2023-10-13T14:41:28;25.40;53.00
12720;DHT22;6424;48.520;11.228;2023-10-13T14:44:16;25.30;54.00
12720;DHT22;6424;48.520;11.228;2023-10-13T14:47:01;25.30;54.20
12720;DHT22;6424;48.520;11.228;2023-10-13T14:49:46;25.20;52.80
12720;DHT22;6424;48.520;11.228;2023-10-13T14:52:30;25.20;53.80
12720;DHT22;6424;48.520;11.228;2023-10-13T14:55:16;25.10;53.20
12720;DHT22;6424;48.520;11.228;2023-10-13T14:58:03;25.10;53.80
12720;DHT22;6424;48.520;11.228;2023-10-13T15:00:48;25.00;54.90
12720;DHT22;6424;48.520;11.228;2023-10-13T15:03:32;24.90;54.70
12720;DHT22;6424;48.520;11.228;2023-10-13T15:06:23;24.90;55.50
12720;DHT22;6424;48.520;11.228;2023-10-13T15:09:14;24.80;56.20
12720;DHT22;6424;48.520;11.228;2023-10-13T15:12:06;24.70;55.70
12720;DHT22;6424;48.520;11.228;2023-10-13T15:14:55;24.70;55.80
12720;DHT22;6424;48.520;11.228;2023-10-13T15:17:40;24.60;56.10
12720;DHT22;6424;48.520;11.228;2023-10-13T15:20:24;24.50;56.00
12720;DHT22;6424;48.520;11.228;2023-10-13T15:23:09;24.40;56.40
12720;DHT22;6424;48.520;11.228;2023-10-13T15:26:03;24.40;56.60
12720;DHT22;6424;48.520;11.228;2023-10-13T15:28:53;24.30;56.80
12720;DHT22;6424;48.520;11.228;2023-10-13T15:31:39;24.20;57.00
12720;DHT22;6424;48.520;11.228;2023-10-13T15:34:25;24.20;57.50
12720;DHT22;6424;48.520;11.228;2023-10-13T15:37:10;24.10;57.80
12720;DHT22;6424;48.520;11.228;2023-10-13T15:39:56;23.90;58.70
12720;DHT22;6424;48.520;11.228;2023-10-13T15:42:43;23.80;58.60
12720;DHT22;6424;48.520;11.228;2023-10-13T15:45:31;23.70;58.50
12720;DHT22;6424;48.520;11.228;2023-10-13T15:48:22;23.60;59.30
12720;DHT22;6424;48.520;11.228;2023-10-13T15:51:11;23.50;59.50
12720;DHT22;6424;48.520;11.228;2023-10-13T15:53:58;23.40;59.50
12720;DHT22;6424;48.520;11.228;2023-10-13T15:56:45;23.20;59.60
12720;DHT22;6424;48.520;11.228;2023-10-13T15:59:29;23.10;59.80
12720;DHT22;6424;48.520;11.228;2023-10-13T16:02:13;23.00;60.10
12720;DHT22;6424;48.520;11.228;2023-10-13T16:05:00;22.90;60.30
12720;DHT22;6424;48.520;11.228;2023-10-13T16:07:52;22.70;61.40
12720;DHT22;6424;48.520;11.228;2023-10-13T16:10:37;22.50;61.80
12720;DHT22;6424;48.520;11.228;2023-10-13T16:13:22;22.40;62.60
12720;DHT22;6424;48.520;11.228;2023-10-13T16:16:06;22.20;62.50
12720;DHT22;6424;48.520;11.228;2023-10-13T16:18:58;22.00;63.30
12720;DHT22;6424;48.520;11.228;2023-10-13T16:21:43;21.90;65.40
12720;DHT22;6424;48.520;11.228;2023-10-13T16:24:28;21.70;65.30
12720;DHT22;6424;48.520;11.228;2023-10-13T16:27:12;21.50;65.80
12720;DHT22;6424;48.520;11.228;2023-10-13T16:29:58;21.30;66.70
12720;DHT22;6424;48.520;11.228;2023-10-13T16:32:42;21.20;67.40
12720;DHT22;6424;48.520;11.228;2023-10-13T16:35:30;21.10;68.00
12720;DHT22;6424;48.520;11.228;2023-10-13T16:38:17;20.90;67.60
12720;DHT22;6424;48.520;11.228;2023-10-13T16:41:02;20.80;67.90
12720;DHT22;6424;48.520;11.228;2023-10-13T16:43:56;20.70;68.50
12720;DHT22;6424;48.520;11.228;2023-10-13T16:46:41;20.60;69.60
12720;DHT22;6424;48.520;11.228;2023-10-13T16:49:25;20.40;70.60
12720;DHT22;6424;48.520;11.228;2023-10-13T16:52:10;20.20;69.90
12720;DHT22;6424;48.520;11.228;2023-10-13T16:54:54;20.20;69.80
12720;DHT22;6424;48.520;11.228;2023-10-13T16:57:38;20.10;70.30
12720;DHT22;6424;48.520;11.228;2023-10-13T17:00:23;20.10;70.40
12720;DHT22;6424;48.520;11.228;2023-10-13T17:03:10;20.00;70.40
12720;DHT22;6424;48.520;11.228;2023-10-13T17:05:57;20.00;70.50
12720;DHT22;6424;48.520;11.228;2023-10-13T17:08:44;19.90;70.50
12720;DHT22;6424;48.520;11.228;2023-10-13T17:11:29;19.80;70.80
12720;DHT22;6424;48.520;11.228;2023-10-13T17:14:13;19.80;71.00
12720;DHT22;6424;48.520;11.228;2023-10-13T17:16:59;19.80;70.90
12720;DHT22;6424;48.520;11.228;2023-10-13T17:19:43;19.90;71.00
12720;DHT22;6424;48.520;11.228;2023-10-13T17:22:33;19.90;70.90
12720;DHT22;6424;48.520;11.228;2023-10-13T17:25:18;19.90;71.00
12720;DHT22;6424;48.520;11.228;2023-10-13T17:28:04;19.80;71.10
12720;DHT22;6424;48.520;11.228;2023-10-13T17:30:56;19.80;71.50
12720;DHT22;6424;48.520;11.228;2023-10-13T17:33:41;19.70;71.40
12720;DHT22;6424;48.520;11.228;2023-10-13T17:36:26;19.70;71.80
12720;DHT22;6424;48.520;11.228;2023-10-13T17:39:14;19.70;72.10
12720;DHT22;6424;48.520;11.228;2023-10-13T17:42:02;19.60;72.50
12720;DHT22;6424;48.520;11.228;2023-10-13T17:44:46;19.50;72.70
12720;DHT22;6424;48.520;11.228;2023-10-13T17:47:30;19.50;72.60
12720;DHT22;6424;48.520;11.228;2023-10-13T17:50:14;19.50;73.20
12720;DHT22;6424;48.520;11.228;2023-10-13T17:53:00;19.40;73.00
12720;DHT22;6424;48.520;11.228;2023-10-13T17:55:48;19.30;73.30
12720;DHT22;6424;48.520;11.228;2023-10-13T17:58:34;19.20;73.80
12720;DHT22;6424;48.520;11.228;2023-10-13T18:01:18;19.20;73.90
12720;DHT22;6424;48.520;11.228;2023-10-13T18:04:03;19.10;74.60